Time;durP1;ratioP1;P1;durP2;ratioP2;P2;SDS_P1;SDS_P2;PMS_P1;PMS_P2;Temp;Humidity;BMP_temperature;BMP_pressure;BME280_temperature;BME280_humidity;BME280_pressure;Samples;Min_cycle;Max_cycle;Signal;HPM_P1;HPM_P2
2021/01/29 00:00:43;;;;;;;1.80;1.70;;;10.60;99.90;;;;;;5085925;28;20424;-31
2021/01/29 00:03:15;;;;;;;2.37;1.97;;;10.60;99.90;;;;;;5090516;28;20444;-27
2021/01/29 00:05:51;;;;;;;1.60;1.50;;;10.60;99.90;;;;;;5089296;28;20431;-32
2021/01/29 00:08:23;;;;;;;2.00;1.90;;;10.50;99.90;;;;;;5089629;28;20435;-26
2021/01/29 00:10:50;;;;;;;2.07;1.97;;;10.60;99.90;;;;;;5090002;28;20685;-29
2021/01/29 00:13:17;;;;;;;2.53;2.07;;;10.60;99.90;;;;;;5089226;28;20440;-29
2021/01/29 00:15:44;;;;;;;2.33;2.13;;;10.60;99.90;;;;;;5090482;28;20440;-28
2021/01/29 00:18:12;;;;;;;2.43;1.80;;;10.60;99.90;;;;;;5089846;28;20576;-28
2021/01/29 00:20:40;;;;;;;1.87;1.77;;;10.60;99.90;;;;;;5090154;28;20837;-30
2021/01/29 00:23:12;;;;;;;1.83;1.73;;;10.50;99.90;;;;;;5089881;28;20761;-30
2021/01/29 00:25:44;;;;;;;2.10;2.00;;;10.50;99.90;;;;;;5090337;28;20522;-29
2021/01/29 00:28:14;;;;;;;2.03;1.93;;;10.50;99.90;;;;;;5088507;28;20478;-28
2021/01/29 00:30:42;;;;;;;2.03;1.93;;;10.50;99.90;;;;;;5089729;28;20486;-31
2021/01/29 00:33:12;;;;;;;1.80;1.70;;;10.50;99.90;;;;;;5088009;28;20428;-30
2021/01/29 00:35:40;;;;;;;6.47;2.00;;;10.50;99.90;;;;;;5089157;28;21001;-29
2021/01/29 00:38:07;;;;;;;2.37;2.27;;;10.50;99.90;;;;;;5088395;28;20463;-29
2021/01/29 00:40:38;;;;;;;2.30;2.20;;;10.50;99.90;;;;;;5088369;28;20529;-29
2021/01/29 00:43:07;;;;;;;3.27;3.07;;;10.50;99.90;;;;;;5087660;28;20451;-30
2021/01/29 00:45:36;;;;;;;2.20;2.00;;;10.50;99.90;;;;;;5088782;28;20587;-28
2021/01/29 00:48:06;;;;;;;2.47;2.37;;;10.50;99.90;;;;;;5070053;28;20443;-29
2021/01/29 00:50:35;;;;;;;2.40;2.30;;;10.50;99.90;;;;;;5088145;28;20436;-30
2021/01/29 00:53:02;;;;;;;1.90;1.80;;;10.50;99.90;;;;;;5089497;28;20496;-29
2021/01/29 00:55:30;;;;;;;2.57;2.37;;;10.50;99.90;;;;;;5089387;28;20474;-27
2021/01/29 00:58:01;;;;;;;2.13;2.00;;;10.50;99.90;;;;;;5089011;28;20488;-28
2021/01/29 01:01:04;;;;;;;2.23;2.03;;;10.50;99.90;;;;;;5056173;28;20746;-29
2021/01/29 01:03:39;;;;;;;2.00;1.90;;;10.50;99.90;;;;;;5071636;28;20738;-29
2021/01/29 01:06:07;;;;;;;2.20;1.90;;;10.50;99.90;;;;;;5054246;28;20487;-30
2021/01/29 01:09:09;;;;;;;2.07;1.90;;;10.50;99.90;;;;;;5088049;28;20459;-28
2021/01/29 01:11:42;;;;;;;2.47;2.37;;;10.40;99.90;;;;;;5071153;28;20906;-33
2021/01/29 01:14:45;;;;;;;5.63;1.60;;;10.30;99.90;;;;;;4987614;28;20811;-28
2021/01/29 01:17:41;;;;;;;2.10;2.00;;;10.30;99.90;;;;;;5073716;28;20984;-30
2021/01/29 01:20:43;;;;;;;2.20;2.10;;;10.30;99.90;;;;;;5088014;28;20873;-29
2021/01/29 01:23:10;;;;;;;2.20;2.00;;;10.30;99.90;;;;;;5070637;28;20779;-27
2021/01/29 01:25:42;;;;;;;2.50;2.30;;;10.40;99.90;;;;;;5071298;28;20530;-30
2021/01/29 01:28:38;;;;;;;4.10;1.93;;;10.40;99.90;;;;;;5088126;28;20555;-30
2021/01/29 01:31:13;;;;;;;2.07;1.93;;;10.40;99.90;;;;;;5066459;28;20485;-28
2021/01/29 01:33:48;;;;;;;1.73;1.50;;;10.40;99.90;;;;;;5068223;28;20528;-29
2021/01/29 01:36:31;;;;;;;2.00;1.90;;;10.30;99.90;;;;;;5067684;28;20500;-29
2021/01/29 01:39:19;;;;;;;2.50;2.40;;;10.40;99.90;;;;;;5067575;28;20479;-28
2021/01/29 01:41:46;;;;;;;2.40;2.00;;;10.40;99.90;;;;;;5066552;28;20436;-32
2021/01/29 01:44:27;;;;;;;1.53;1.43;;;10.40;99.90;;;;;;5066552;28;20448;-28
2021/01/29 01:47:23;;;;;;;1.83;1.73;;;10.40;99.90;;;;;;5066633;28;20944;-30
2021/01/29 01:50:18;;;;;;;2.50;1.93;;;10.40;99.90;;;;;;5067824;28;20905;-28
2021/01/29 01:52:48;;;;;;;1.47;1.47;;;10.30;99.90;;;;;;5066280;28;20464;-27
2021/01/29 01:55:42;;;;;;;2.23;2.13;;;10.30;99.90;;;;;;5062366;28;20886;-29
2021/01/29 01:58:33;;;;;;;2.03;1.93;;;10.30;99.90;;;;;;5066354;28;20487;-28
2021/01/29 02:01:24;;;;;;;2.30;2.10;;;10.30;99.90;;;;;;5038565;28;20714;-29
2021/01/29 02:04:13;;;;;;;1.90;1.80;;;10.30;99.90;;;;;;5067911;28;20456;-28
2021/01/29 02:07:14;;;;;;;3.10;2.80;;;10.30;99.90;;;;;;5067608;28;20460;-29
2021/01/29 02:10:02;;;;;;;2.73;2.23;;;10.30;99.90;;;;;;5066791;28;20755;-28
2021/01/29 02:12:35;;;;;;;3.70;2.80;;;10.30;99.90;;;;;;5066821;28;20954;-29
2021/01/29 02:15:09;;;;;;;2.70;2.60;;;10.20;99.90;;;;;;5067168;28;20472;-28
2021/01/29 02:17:55;;;;;;;5.50;2.50;;;10.30;99.90;;;;;;5066015;28;20479;-32
2021/01/29 02:21:08;;;;;;;2.50;2.33;;;10.20;99.90;;;;;;5066572;28;20873;-28
2021/01/29 02:25:03;;;;;;;2.40;2.20;;;10.20;99.90;;;;;;5018015;28;20512;-30
2021/01/29 02:27:52;;;;;;;3.67;3.00;;;10.20;99.90;;;;;;4926886;29;20451;-27
2021/01/29 02:31:15;;;;;;;2.73;2.53;;;10.20;99.90;;;;;;4999045;28;20474;-28
2021/01/29 02:34:18;;;;;;;4.20;2.63;;;10.10;99.90;;;;;;5046015;28;20489;-27
2021/01/29 02:37:44;;;;;;;2.30;2.07;;;10.10;99.90;;;;;;5045726;28;20485;-27
2021/01/29 02:40:39;;;;;;;2.73;2.53;;;10.10;99.90;;;;;;5041645;28;20548;-29
2021/01/29 02:43:25;;;;;;;2.70;2.50;;;10.10;99.90;;;;;;5063215;28;20442;-29
2021/01/29 02:46:29;;;;;;;3.80;3.50;;;10.10;99.90;;;;;;5041298;28;20460;-29
2021/01/29 02:49:18;;;;;;;3.13;2.83;;;10.00;99.90;;;;;;5063399;28;20780;-30
2021/01/29 02:52:20;;;;;;;3.80;3.50;;;10.00;99.90;;;;;;5026485;28;20454;-27
2021/01/29 02:55:12;;;;;;;2.93;2.80;;;10.10;99.90;;;;;;5045358;28;20628;-27
2021/01/29 02:58:00;;;;;;;3.30;3.03;;;10.10;99.90;;;;;;5044444;28;20647;-29
2021/01/29 03:00:57;;;;;;;3.23;2.87;;;10.10;99.90;;;;;;5046975;28;20780;-29
2021/01/29 03:03:27;;;;;;;2.87;2.67;;;10.10;99.90;;;;;;5045591;28;20440;-28
2021/01/29 03:06:21;;;;;;;3.97;3.33;;;10.10;99.90;;;;;;5045987;28;20461;-28
2021/01/29 03:08:55;;;;;;;4.10;3.43;;;10.10;99.90;;;;;;5045177;28;20826;-29
2021/01/29 03:12:06;;;;;;;2.90;2.80;;;10.10;99.90;;;;;;5005677;28;20455;-28
2021/01/29 03:14:59;;;;;;;3.97;3.67;;;10.10;99.90;;;;;;5004967;28;20531;-27
2021/01/29 03:17:50;;;;;;;3.10;2.90;;;10.10;99.90;;;;;;5039086;28;20899;-29
2021/01/29 03:20:52;;;;;;;2.97;2.77;;;10.00;99.90;;;;;;5027085;28;20872;-31
2021/01/29 03:23:40;;;;;;;3.60;3.40;;;10.00;99.90;;;;;;5047350;28;20448;-30
2021/01/29 03:26:34;;;;;;;3.30;3.10;;;9.90;99.90;;;;;;5045874;28;20740;-27
2021/01/29 03:29:23;;;;;;;3.07;2.70;;;9.90;99.90;;;;;;5054803;28;20483;-29
2021/01/29 03:32:13;;;;;;;3.43;3.13;;;10.00;99.90;;;;;;5087743;28;20436;-30
2021/01/29 03:35:05;;;;;;;3.73;3.43;;;9.90;99.90;;;;;;5068549;28;20468;-29
2021/01/29 03:37:57;;;;;;;4.40;3.50;;;9.90;99.90;;;;;;5089670;28;20486;-30
2021/01/29 03:40:44;;;;;;;3.63;3.20;;;9.90;99.90;;;;;;5091501;28;20746;-27
2021/01/29 03:43:36;;;;;;;3.40;3.10;;;9.90;99.90;;;;;;5090765;28;20765;-30
2021/01/29 03:46:30;;;;;;;3.07;2.87;;;9.90;99.90;;;;;;5089913;28;20511;-27
2021/01/29 03:49:25;;;;;;;2.20;2.10;;;9.90;99.90;;;;;;5091088;28;20916;-30
2021/01/29 03:52:16;;;;;;;2.33;2.20;;;9.80;99.90;;;;;;5091044;28;20456;-28
2021/01/29 03:55:15;;;;;;;2.57;2.37;;;9.90;99.90;;;;;;5091077;28;20475;-28
2021/01/29 03:58:10;;;;;;;1.60;1.50;;;9.90;99.90;;;;;;5090561;28;20456;-29
2021/01/29 04:01:03;;;;;;;2.50;1.70;;;10.00;99.90;;;;;;5091050;28;20431;-29
2021/01/29 04:03:59;;;;;;;1.23;1.23;;;10.00;99.90;;;;;;5090467;28;20468;-29
2021/01/29 04:06:55;;;;;;;1.23;1.20;;;10.00;99.90;;;;;;5089967;28;20524;-29
2021/01/29 04:09:47;;;;;;;1.40;1.20;;;10.00;99.90;;;;;;5093533;28;20527;-28
2021/01/29 04:12:52;;;;;;;1.13;1.13;;;10.10;99.90;;;;;;5065304;28;20883;-30
2021/01/29 04:15:37;;;;;;;1.00;1.00;;;10.10;99.90;;;;;;5090399;28;20684;-28
2021/01/29 04:18:12;;;;;;;1.07;1.07;;;10.00;99.90;;;;;;5089803;28;20880;-27
2021/01/29 04:20:43;;;;;;;0.97;0.97;;;10.00;99.90;;;;;;5088514;28;20525;-28
2021/01/29 04:23:17;;;;;;;1.80;1.07;;;10.10;99.90;;;;;;5089142;28;20450;-28
2021/01/29 04:25:52;;;;;;;1.17;1.17;;;10.10;99.90;;;;;;5089036;28;20446;-29
2021/01/29 04:28:22;;;;;;;1.13;1.13;;;10.20;99.90;;;;;;5088640;28;20678;-29
2021/01/29 04:30:52;;;;;;;1.00;1.00;;;10.20;99.90;;;;;;5089240;28;20869;-29
2021/01/29 04:33:24;;;;;;;1.50;1.40;;;10.30;99.90;;;;;;5089780;28;20454;-29
2021/01/29 04:35:52;;;;;;;1.10;1.10;;;10.30;99.90;;;;;;5089509;28;20714;-30
2021/01/29 04:38:26;;;;;;;1.20;1.20;;;10.40;99.90;;;;;;5088257;28;20562;-29
2021/01/29 04:40:59;;;;;;;1.20;1.20;;;10.40;99.90;;;;;;5088745;28;20967;-29
2021/01/29 04:43:41;;;;;;;1.13;1.13;;;10.30;99.90;;;;;;5088927;28;20444;-30
2021/01/29 04:46:41;;;;;;;1.67;1.57;;;10.20;99.90;;;;;;5088342;28;20732;-28
2021/01/29 04:49:23;;;;;;;0.80;0.80;;;10.30;99.90;;;;;;5086315;28;20535;-27
2021/01/29 04:52:25;;;;;;;1.23;1.13;;;10.30;99.90;;;;;;5088763;28;20934;-31
2021/01/29 04:55:35;;;;;;;1.03;1.03;;;10.20;99.90;;;;;;5069757;28;20443;-30
2021/01/29 04:58:04;;;;;;;0.87;0.87;;;10.20;99.90;;;;;;5087596;28;20460;-29
2021/01/29 05:01:23;;;;;;;1.00;1.00;;;10.10;99.90;;;;;;5087489;28;20463;-28
2021/01/29 05:04:40;;;;;;;1.07;1.07;;;10.10;99.90;;;;;;5087497;28;20733;-29
2021/01/29 05:08:21;;;;;;;0.97;0.97;;;10.10;99.90;;;;;;5056813;28;20731;-29
2021/01/29 05:11:22;;;;;;;1.13;1.03;;;10.10;99.90;;;;;;5023077;28;20438;-27
2021/01/29 05:14:04;;;;;;;1.20;1.20;;;10.10;99.90;;;;;;5022799;28;20448;-27
2021/01/29 05:17:09;;;;;;;1.00;1.00;;;10.10;99.90;;;;;;5071260;28;20479;-29
2021/01/29 05:20:10;;;;;;;1.17;1.17;;;10.10;99.90;;;;;;5067052;28;20557;-28
2021/01/29 05:22:56;;;;;;;1.10;1.10;;;10.10;99.90;;;;;;5099065;28;20451;-27
2021/01/29 05:25:59;;;;;;;1.10;1.10;;;10.10;99.90;;;;;;5090150;28;20818;-28
2021/01/29 05:28:49;;;;;;;1.50;1.50;;;10.20;99.90;;;;;;5087967;28;20793;-30
2021/01/29 05:31:52;;;;;;;1.63;1.53;;;10.20;99.90;;;;;;5082019;28;20496;-28
2021/01/29 05:34:39;;;;;;;2.90;1.80;;;10.20;99.90;;;;;;5088013;28;20703;-27
2021/01/29 05:37:32;;;;;;;2.40;2.23;;;10.20;99.90;;;;;;5086716;28;20965;-26
2021/01/29 05:40:12;;;;;;;3.33;1.53;;;10.20;99.90;;;;;;5086983;28;20525;-28
2021/01/29 05:42:55;;;;;;;1.73;1.63;;;10.20;99.90;;;;;;5101427;28;21241;-29
2021/01/29 05:45:43;;;;;;;2.27;2.07;;;10.30;99.90;;;;;;5087823;28;20911;-29
2021/01/29 05:48:42;;;;;;;37.10;23.70;;;10.20;99.90;;;;;;5087440;28;20443;-30
2021/01/29 05:51:27;;;;;;;10.17;6.30;;;10.30;99.90;;;;;;5076193;28;20825;-29
2021/01/29 05:54:31;;;;;;;2.10;2.00;;;10.30;99.90;;;;;;5063309;28;20502;-28
2021/01/29 05:57:43;;;;;;;14.40;10.60;;;10.30;99.90;;;;;;5016367;28;21019;-28
2021/01/29 06:00:24;;;;;;;3.30;2.93;;;10.20;99.90;;;;;;5033253;28;20669;-28
2021/01/29 06:03:28;;;;;;;6.13;4.23;;;10.20;99.90;;;;;;5079774;28;20465;-29
2021/01/29 06:06:19;;;;;;;3.50;1.90;;;10.10;99.90;;;;;;5075188;28;20583;-29
2021/01/29 06:09:21;;;;;;;3.13;2.80;;;10.10;99.90;;;;;;5074347;28;20699;-28
2021/01/29 06:11:57;;;;;;;3.93;1.60;;;10.10;99.90;;;;;;5034902;28;20455;-27
2021/01/29 06:15:02;;;;;;;1.97;1.87;;;10.20;99.90;;;;;;5076969;28;20462;-27
2021/01/29 06:18:08;;;;;;;2.43;2.10;;;10.20;99.90;;;;;;5035057;28;20731;-27
2021/01/29 06:21:22;;;;;;;2.67;1.80;;;10.10;99.90;;;;;;5057640;28;20888;-32
2021/01/29 06:24:17;;;;;;;8.53;5.70;;;10.10;99.90;;;;;;4972726;28;20731;-28
2021/01/29 06:27:12;;;;;;;3.20;2.90;;;10.20;99.90;;;;;;4971551;28;20603;-28
2021/01/29 06:30:01;;;;;;;3.40;2.50;;;10.20;99.90;;;;;;5059245;28;20883;-28
2021/01/29 06:32:55;;;;;;;4.03;3.70;;;10.20;99.90;;;;;;5075661;28;20450;-30
2021/01/29 06:35:31;;;;;;;10.33;9.20;;;10.20;99.90;;;;;;5070494;28;20475;-31
2021/01/29 06:38:13;;;;;;;34.97;30.83;;;10.20;99.90;;;;;;5071520;28;20466;-28
2021/01/29 06:40:46;;;;;;;15.37;13.07;;;10.20;99.90;;;;;;5077538;28;20443;-29
2021/01/29 06:43:33;;;;;;;2.93;2.47;;;10.20;99.90;;;;;;5076480;28;20522;-29
2021/01/29 06:46:20;;;;;;;3.30;3.00;;;10.20;99.90;;;;;;5075678;28;20439;-28
2021/01/29 06:49:21;;;;;;;2.27;2.17;;;10.20;99.90;;;;;;5077217;28;21162;-28
2021/01/29 06:52:15;;;;;;;2.63;2.43;;;10.00;99.90;;;;;;5076179;28;20608;-31
2021/01/29 06:55:15;;;;;;;0.73;0.73;;;9.90;99.90;;;;;;5059343;28;21082;-33
2021/01/29 06:58:05;;;;;;;0.70;0.70;;;9.70;99.90;;;;;;5071707;28;20482;-27
2021/01/29 07:01:07;;;;;;;0.70;0.70;;;9.70;99.90;;;;;;5054137;28;20873;-27
2021/01/29 07:03:55;;;;;;;0.60;0.60;;;9.60;99.90;;;;;;5046541;28;20846;-28
2021/01/29 07:06:46;;;;;;;0.70;0.70;;;9.60;99.90;;;;;;5072044;28;20456;-27
2021/01/29 07:09:23;;;;;;;0.67;0.67;;;9.60;99.90;;;;;;5068642;28;20560;-28
2021/01/29 07:12:20;;;;;;;0.70;0.70;;;9.60;99.90;;;;;;5067861;28;20447;-28
2021/01/29 07:14:57;;;;;;;0.90;0.90;;;9.60;99.90;;;;;;5071620;28;20444;-28
2021/01/29 07:17:53;;;;;;;0.70;0.70;;;9.60;99.90;;;;;;5070931;28;20550;-27
2021/01/29 07:20:36;;;;;;;0.70;0.70;;;9.70;99.90;;;;;;5066056;28;20537;-27
2021/01/29 07:23:35;;;;;;;0.70;0.70;;;9.70;99.90;;;;;;5060923;28;21260;-28
2021/01/29 07:26:37;;;;;;;0.53;0.53;;;9.70;99.90;;;;;;5066815;28;20495;-28
2021/01/29 07:29:30;;;;;;;0.67;0.67;;;9.70;99.90;;;;;;5063949;28;20483;-29
2021/01/29 07:32:10;;;;;;;0.60;0.60;;;9.70;99.90;;;;;;5064279;28;20442;-27
2021/01/29 07:34:45;;;;;;;0.60;0.60;;;9.70;99.90;;;;;;5064010;28;20880;-27
2021/01/29 07:37:43;;;;;;;0.60;0.60;;;9.70;99.90;;;;;;5066114;28;20485;-28
2021/01/29 07:40:36;;;;;;;0.50;0.50;;;9.70;99.90;;;;;;5064872;28;20437;-28
2021/01/29 07:43:19;;;;;;;0.50;0.50;;;9.80;99.90;;;;;;5042409;28;20467;-28
2021/01/29 07:46:26;;;;;;;0.60;0.60;;;9.80;99.90;;;;;;5063355;28;20432;-27
2021/01/29 07:49:29;;;;;;;0.50;0.50;;;9.90;99.90;;;;;;5020349;28;20509;-27
2021/01/29 07:52:04;;;;;;;0.70;0.70;;;9.80;99.90;;;;;;5065385;28;20455;-27
2021/01/29 07:54:54;;;;;;;0.50;0.50;;;9.80;99.90;;;;;;5062996;28;21299;-28
2021/01/29 07:57:33;;;;;;;0.50;0.50;;;9.70;99.90;;;;;;5059404;28;20467;-32
2021/01/29 08:00:15;;;;;;;0.60;0.60;;;9.80;99.90;;;;;;5057760;28;20490;-27
2021/01/29 08:03:21;;;;;;;0.50;0.50;;;9.80;99.90;;;;;;5046509;28;20447;-28
2021/01/29 08:06:01;;;;;;;0.60;0.60;;;9.90;99.90;;;;;;5056930;28;20531;-29
2021/01/29 08:08:32;;;;;;;0.50;0.50;;;9.90;99.90;;;;;;5061608;28;20471;-28
2021/01/29 08:11:01;;;;;;;0.50;0.50;;;9.90;99.90;;;;;;5054971;28;20435;-28
2021/01/29 08:13:42;;;;;;;0.50;0.50;;;9.90;99.90;;;;;;5054641;28;20674;-27
2021/01/29 08:16:27;;;;;;;0.50;0.50;;;9.90;99.90;;;;;;5060024;28;20467;-27
2021/01/29 08:18:59;;;;;;;0.50;0.50;;;10.00;99.90;;;;;;5062520;28;20563;-28
2021/01/29 08:22:06;;;;;;;0.60;0.60;;;10.00;99.90;;;;;;5054257;28;20454;-28
2021/01/29 08:24:53;;;;;;;0.50;0.50;;;10.10;99.90;;;;;;5056266;28;20501;-28
2021/01/29 08:27:57;;;;;;;0.60;0.60;;;10.30;99.90;;;;;;5065549;28;20438;-29
2021/01/29 08:31:16;;;;;;;0.50;0.50;;;10.40;99.90;;;;;;5061173;28;20479;-29
2021/01/29 08:34:31;;;;;;;0.50;0.50;;;10.50;99.90;;;;;;5063236;28;20435;-29
2021/01/29 08:37:22;;;;;;;0.60;0.60;;;10.50;99.90;;;;;;5036961;28;20508;-28
2021/01/29 08:39:56;;;;;;;0.50;0.50;;;10.50;99.90;;;;;;5062200;28;20448;-28
2021/01/29 08:42:36;;;;;;;0.60;0.60;;;10.50;99.90;;;;;;5059988;28;20517;-29
2021/01/29 08:45:19;;;;;;;0.60;0.60;;;10.50;99.90;;;;;;5060722;28;20470;-29
2021/01/29 08:48:12;;;;;;;0.60;0.60;;;10.60;99.90;;;;;;5061065;28;20436;-29
2021/01/29 08:50:51;;;;;;;0.60;0.60;;;10.60;99.90;;;;;;5050542;28;20467;-28
2021/01/29 08:54:06;;;;;;;0.60;0.60;;;10.70;99.90;;;;;;5057177;28;20442;-28
2021/01/29 08:56:43;;;;;;;0.60;0.60;;;10.70;99.90;;;;;;5000729;28;20470;-29
2021/01/29 08:59:15;;;;;;;0.70;0.70;;;10.80;99.90;;;;;;5054046;28;20467;-29
2021/01/29 09:01:49;;;;;;;0.60;0.60;;;10.80;99.90;;;;;;5045484;28;21098;-28
2021/01/29 09:04:25;;;;;;;0.60;0.60;;;10.70;99.90;;;;;;5057020;28;20585;-28
2021/01/29 09:07:00;;;;;;;0.50;0.50;;;10.80;99.90;;;;;;5060915;28;20451;-29
2021/01/29 09:09:33;;;;;;;0.50;0.50;;;10.80;99.90;;;;;;5058426;28;21352;-28
2021/01/29 09:12:03;;;;;;;0.50;0.50;;;10.80;99.90;;;;;;5062616;28;20468;-28
2021/01/29 09:14:35;;;;;;;0.60;0.60;;;10.90;99.90;;;;;;5059920;28;20596;-30
2021/01/29 09:17:06;;;;;;;0.50;0.50;;;10.90;99.90;;;;;;5062006;28;20678;-28
2021/01/29 09:19:37;;;;;;;0.70;0.70;;;11.00;99.90;;;;;;5060772;28;20510;-27
2021/01/29 09:22:14;;;;;;;0.60;0.60;;;10.80;99.90;;;;;;5061860;28;20490;-29
2021/01/29 09:24:47;;;;;;;0.50;0.50;;;10.80;99.90;;;;;;5061364;28;20444;-28
2021/01/29 09:27:45;;;;;;;0.50;0.50;;;10.80;99.90;;;;;;5059703;28;20440;-29
2021/01/29 09:30:21;;;;;;;0.50;0.50;;;10.80;99.90;;;;;;5066771;28;20847;-29
2021/01/29 09:33:00;;;;;;;0.50;0.50;;;11.00;99.90;;;;;;5062341;28;20466;-28
2021/01/29 09:35:52;;;;;;;0.57;0.57;;;11.10;99.90;;;;;;5082020;28;20650;-29
2021/01/29 09:38:24;;;;;;;0.50;0.50;;;11.40;99.90;;;;;;5069062;28;20474;-29
2021/01/29 09:41:01;;;;;;;0.60;0.60;;;11.60;99.90;;;;;;5082178;28;20545;-27
2021/01/29 09:43:45;;;;;;;0.50;0.50;;;11.60;99.90;;;;;;5079685;28;20542;-27
2021/01/29 09:46:14;;;;;;;0.60;0.60;;;11.70;99.90;;;;;;5075806;28;20446;-28
2021/01/29 09:48:42;;;;;;;0.60;0.60;;;11.90;99.90;;;;;;5076848;28;20922;-28
2021/01/29 09:51:26;;;;;;;0.60;0.60;;;12.10;99.90;;;;;;5070584;28;20448;-29
2021/01/29 09:54:00;;;;;;;0.60;0.60;;;12.20;99.90;;;;;;5053686;28;20492;-29
2021/01/29 09:56:32;;;;;;;0.60;0.60;;;12.40;99.90;;;;;;5073629;28;20450;-30
2021/01/29 09:59:24;;;;;;;0.60;0.60;;;12.70;99.90;;;;;;5068772;28;21305;-28
2021/01/29 10:02:01;;;;;;;0.60;0.60;;;12.70;99.90;;;;;;5067173;28;20447;-28
2021/01/29 10:04:51;;;;;;;0.70;0.70;;;12.40;99.90;;;;;;5065720;28;20798;-28
2021/01/29 10:07:22;;;;;;;0.67;0.67;;;12.30;99.90;;;;;;5072617;28;20457;-28
2021/01/29 10:10:01;;;;;;;0.70;0.70;;;12.00;99.90;;;;;;5073562;28;21297;-28
2021/01/29 10:12:30;;;;;;;0.77;0.77;;;11.80;99.90;;;;;;5063653;28;20931;-27
2021/01/29 10:15:06;;;;;;;0.70;0.70;;;11.60;99.90;;;;;;5070015;28;20426;-27
2021/01/29 10:17:37;;;;;;;0.70;0.70;;;11.60;99.90;;;;;;5070537;28;20458;-26
2021/01/29 10:20:08;;;;;;;0.70;0.70;;;11.50;99.90;;;;;;5057965;28;20779;-29
2021/01/29 10:22:46;;;;;;;0.60;0.60;;;11.80;99.90;;;;;;5061718;28;20623;-28
2021/01/29 10:25:25;;;;;;;0.60;0.60;;;11.90;99.90;;;;;;5064586;28;21406;-27
2021/01/29 10:27:55;;;;;;;0.60;0.60;;;11.90;99.90;;;;;;5064680;28;20444;-29
2021/01/29 10:30:31;;;;;;;0.70;0.70;;;11.90;99.90;;;;;;5062630;28;20568;-28
2021/01/29 10:33:06;;;;;;;0.70;0.70;;;11.90;99.90;;;;;;5063007;28;20550;-27
2021/01/29 10:35:40;;;;;;;0.70;0.70;;;12.00;99.90;;;;;;5059952;28;20439;-28
2021/01/29 10:38:12;;;;;;;0.80;0.80;;;12.20;99.90;;;;;;5062307;28;20479;-27
2021/01/29 10:40:43;;;;;;;0.80;0.80;;;12.20;99.90;;;;;;5059548;28;21070;-27
2021/01/29 10:43:19;;;;;;;0.80;0.80;;;12.20;99.90;;;;;;5040628;28;20436;-27
2021/01/29 10:45:57;;;;;;;0.80;0.80;;;11.90;99.90;;;;;;5062300;28;20432;-28
2021/01/29 10:48:44;;;;;;;1.20;1.20;;;11.90;99.90;;;;;;5036311;28;20446;-26
2021/01/29 10:51:22;;;;;;;1.00;1.00;;;11.70;99.90;;;;;;5059884;28;20548;-27
2021/01/29 10:53:54;;;;;;;1.00;1.00;;;11.60;99.90;;;;;;5062792;28;20868;-26
2021/01/29 10:56:27;;;;;;;1.07;1.07;;;11.70;99.90;;;;;;5059557;28;20434;-27
2021/01/29 10:58:58;;;;;;;1.07;1.07;;;11.70;99.90;;;;;;5064880;28;21205;-27
2021/01/29 11:01:33;;;;;;;4.13;2.37;;;11.50;99.90;;;;;;5061934;28;20496;-27
2021/01/29 11:04:06;;;;;;;3.47;2.47;;;11.50;99.90;;;;;;5053995;28;20447;-29
2021/01/29 11:06:48;;;;;;;4.23;2.17;;;11.70;99.90;;;;;;5030562;28;21290;-29
2021/01/29 11:09:27;;;;;;;2.50;2.30;;;11.90;99.90;;;;;;5059562;28;21152;-27
2021/01/29 11:12:10;;;;;;;3.13;2.17;;;12.00;99.90;;;;;;5064192;28;20447;-26
2021/01/29 11:14:41;;;;;;;3.33;2.13;;;12.10;99.90;;;;;;4986100;28;20586;-29
2021/01/29 11:17:18;;;;;;;2.50;2.30;;;12.10;99.90;;;;;;4994436;28;20436;-32
2021/01/29 11:26:12;;;;;;;3.27;2.40;;;12.20;99.90;;;;;;5081876;28;20581;-27
2021/01/29 11:28:47;;;;;;;3.37;2.07;;;12.40;99.90;;;;;;5073231;28;20507;-27
2021/01/29 11:31:19;;;;;;;4.67;2.27;;;12.30;99.90;;;;;;5082285;28;20478;-28
2021/01/29 11:33:50;;;;;;;2.40;2.27;;;12.30;99.90;;;;;;5065837;28;20549;-26
2021/01/29 11:36:27;;;;;;;6.33;2.60;;;12.50;99.90;;;;;;5061454;28;20695;-29
2021/01/29 11:39:10;;;;;;;2.93;2.70;;;12.60;99.90;;;;;;5080052;28;20470;-28
2021/01/29 11:41:50;;;;;;;3.87;2.40;;;12.70;99.90;;;;;;5086954;28;20438;-27
2021/01/29 11:44:27;;;;;;;4.47;2.60;;;12.70;99.90;;;;;;5076134;28;20482;-26
2021/01/29 11:47:02;;;;;;;4.73;2.80;;;12.60;99.90;;;;;;5051121;28;20521;-27
2021/01/29 11:49:34;;;;;;;4.13;2.90;;;12.40;99.90;;;;;;5062834;28;20862;-27
2021/01/29 11:52:10;;;;;;;3.90;2.40;;;12.10;99.90;;;;;;5082533;28;20451;-29
2021/01/29 11:54:45;;;;;;;7.00;2.43;;;12.10;99.90;;;;;;5085669;28;20508;-27
2021/01/29 11:57:17;;;;;;;2.87;2.50;;;12.20;99.90;;;;;;5070875;28;20784;-27
2021/01/29 11:59:51;;;;;;;5.23;2.73;;;12.30;99.90;;;;;;5068105;28;20508;-28
2021/01/29 12:02:31;;;;;;;10.40;2.90;;;12.40;99.90;;;;;;5088033;28;20749;-28
2021/01/29 12:05:17;;;;;;;3.30;2.90;;;12.30;99.90;;;;;;5083846;28;20442;-26
2021/01/29 12:07:52;;;;;;;2.90;2.60;;;12.20;99.90;;;;;;5077048;28;21280;-27
2021/01/29 12:10:27;;;;;;;4.40;2.33;;;12.10;99.90;;;;;;5070433;28;20762;-27
2021/01/29 12:12:57;;;;;;;2.60;2.17;;;12.20;99.90;;;;;;5073334;28;20432;-27
2021/01/29 12:15:37;;;;;;;2.97;2.33;;;12.10;99.90;;;;;;5065447;28;20740;-27
2021/01/29 12:18:09;;;;;;;2.53;2.17;;;12.00;99.90;;;;;;5044301;28;20482;-27
2021/01/29 12:20:39;;;;;;;8.77;2.83;;;12.10;99.90;;;;;;5064875;28;20465;-27
2021/01/29 12:23:23;;;;;;;3.20;2.20;;;12.10;99.90;;;;;;5066340;28;20580;-27
2021/01/29 12:25:57;;;;;;;3.93;2.73;;;12.20;99.90;;;;;;5060298;28;20615;-26
2021/01/29 12:28:46;;;;;;;31.57;14.33;;;12.40;99.90;;;;;;5054983;28;20558;-27
2021/01/29 12:31:24;;;;;;;4.60;3.27;;;12.50;99.90;;;;;;5064870;28;20522;-28
2021/01/29 12:33:55;;;;;;;5.43;2.80;;;12.40;99.90;;;;;;5046502;28;20691;-27
2021/01/29 12:36:27;;;;;;;5.20;2.90;;;12.20;99.90;;;;;;5058295;28;20672;-28
2021/01/29 12:38:58;;;;;;;3.97;2.83;;;11.90;99.90;;;;;;5061789;28;20881;-27
2021/01/29 12:41:34;;;;;;;4.57;2.93;;;11.90;99.90;;;;;;5066371;28;20972;-26
2021/01/29 12:44:22;;;;;;;6.17;3.00;;;11.80;99.90;;;;;;5069457;28;20747;-26
2021/01/29 12:46:58;;;;;;;2.80;2.60;;;11.80;99.90;;;;;;5055974;28;20554;-29
2021/01/29 12:49:36;;;;;;;3.90;3.60;;;11.70;99.90;;;;;;5066051;28;20494;-26
2021/01/29 12:52:11;;;;;;;4.90;4.40;;;11.70;99.90;;;;;;5065190;28;20615;-28
2021/01/29 12:54:45;;;;;;;4.53;3.47;;;11.80;99.90;;;;;;5061329;28;20660;-27
2021/01/29 12:57:14;;;;;;;5.20;4.80;;;11.80;99.90;;;;;;5052948;28;20953;-27
2021/01/29 12:59:47;;;;;;;4.77;2.50;;;11.70;99.90;;;;;;5052579;28;20555;-31
2021/01/29 13:02:43;;;;;;;5.27;3.40;;;11.70;99.90;;;;;;5056673;28;20463;-29
2021/01/29 13:05:19;;;;;;;11.03;7.50;;;11.60;99.90;;;;;;5068262;28;20471;-28
2021/01/29 13:08:10;;;;;;;4.97;4.30;;;11.60;99.90;;;;;;5045378;28;20504;-28
2021/01/29 13:10:41;;;;;;;9.40;3.80;;;11.70;99.90;;;;;;5047461;28;20464;-26
2021/01/29 13:13:20;;;;;;;6.93;4.37;;;11.80;99.90;;;;;;5060223;28;20436;-26
2021/01/29 13:16:02;;;;;;;2.67;2.47;;;11.70;99.90;;;;;;5063725;28;20446;-28
2021/01/29 13:18:44;;;;;;;2.83;2.60;;;11.40;99.90;;;;;;5069649;28;20568;-27
2021/01/29 13:21:18;;;;;;;4.80;3.00;;;11.00;99.90;;;;;;5075744;28;20455;-28
2021/01/29 13:23:47;;;;;;;7.10;2.83;;;10.60;99.90;;;;;;5076918;28;20818;-26
2021/01/29 13:26:27;;;;;;;2.73;2.53;;;10.50;99.90;;;;;;5065444;28;20667;-27
2021/01/29 13:29:00;;;;;;;4.27;2.83;;;10.40;99.90;;;;;;5069183;28;20468;-29
2021/01/29 13:31:33;;;;;;;6.70;3.27;;;10.30;99.90;;;;;;5074119;28;20748;-26
2021/01/29 13:34:03;;;;;;;5.37;3.97;;;10.40;99.90;;;;;;5074136;28;20578;-27
2021/01/29 13:36:32;;;;;;;3.40;2.43;;;10.60;99.90;;;;;;5069477;28;20686;-26
2021/01/29 13:39:21;;;;;;;2.30;1.70;;;10.70;99.90;;;;;;5051815;28;20732;-27
2021/01/29 13:41:50;;;;;;;5.03;2.67;;;10.70;99.90;;;;;;5056511;28;20767;-26
2021/01/29 13:44:34;;;;;;;4.67;2.30;;;10.70;99.90;;;;;;5076472;28;20470;-29
2021/01/29 13:47:03;;;;;;;3.53;2.17;;;10.70;99.90;;;;;;5069948;28;20440;-26
2021/01/29 13:49:35;;;;;;;3.87;1.90;;;10.80;99.90;;;;;;5076340;28;20442;-27
2021/01/29 13:52:24;;;;;;;4.23;3.20;;;10.80;99.90;;;;;;5075800;28;20506;-27
2021/01/29 13:54:53;;;;;;;4.10;2.40;;;10.80;99.90;;;;;;5082616;28;20900;-28
2021/01/29 13:57:30;;;;;;;4.10;1.97;;;10.80;99.90;;;;;;5082800;28;20545;-26
2021/01/29 14:00:05;;;;;;;3.73;2.00;;;10.80;99.90;;;;;;5100412;28;20430;-26
2021/01/29 14:02:43;;;;;;;2.70;2.00;;;10.90;99.90;;;;;;5081867;28;20444;-27
2021/01/29 14:05:14;;;;;;;2.40;2.17;;;10.90;99.90;;;;;;5082167;28;20430;-26
2021/01/29 14:07:48;;;;;;;2.60;2.40;;;11.00;99.90;;;;;;5082887;28;20455;-26
2021/01/29 14:10:19;;;;;;;2.77;2.53;;;11.00;99.90;;;;;;5085018;28;20526;-29
2021/01/29 14:12:58;;;;;;;4.20;2.00;;;11.00;99.90;;;;;;5086628;28;20475;-27
2021/01/29 14:15:31;;;;;;;2.37;2.10;;;10.90;99.90;;;;;;5102206;28;20427;-27
2021/01/29 14:18:07;;;;;;;2.20;2.10;;;10.90;99.90;;;;;;5099192;28;20964;-26